createdAt,value
2018-09-05T00:01:58.899Z,16.23
2018-09-05T00:04:28.080Z,15.88
2018-09-05T00:06:56.861Z,15.73
2018-09-05T00:09:25.750Z,15.80
2018-09-05T00:11:54.860Z,15.79
2018-09-05T00:14:23.722Z,15.88
2018-09-05T00:16:52.512Z,15.84
2018-09-05T00:19:21.568Z,15.78
2018-09-05T00:21:50.351Z,15.95
2018-09-05T00:24:19.158Z,15.72
2018-09-05T00:26:48.231Z,15.67
2018-09-05T00:29:17.132Z,15.82
2018-09-05T00:31:45.960Z,15.78
2018-09-05T00:34:15.401Z,15.73
2018-09-05T00:36:44.259Z,15.68
2018-09-05T00:39:13.080Z,15.76
2018-09-05T00:41:42.386Z,15.78
2018-09-05T00:44:11.144Z,15.85
2018-09-05T00:46:39.908Z,15.87
2018-09-05T00:49:08.840Z,15.90
2018-09-05T00:51:37.666Z,15.80
2018-09-05T00:54:06.500Z,15.73
2018-09-05T00:56:35.636Z,15.51
2018-09-05T00:59:04.463Z,15.42
2018-09-05T01:01:33.251Z,15.48
2018-09-05T01:04:02.411Z,15.42
2018-09-05T01:06:31.384Z,15.44
2018-09-05T01:09:00.199Z,15.40
2018-09-05T01:11:29.399Z,15.32
2018-09-05T01:13:58.228Z,15.18
2018-09-05T01:16:27.042Z,15.18
2018-09-05T01:18:56.284Z,15.17
2018-09-05T01:21:25.091Z,15.09
2018-09-05T01:23:53.911Z,15.28
2018-09-05T01:26:22.992Z,15.32
2018-09-05T01:28:51.801Z,15.17
2018-09-05T01:31:20.949Z,15.04
2018-09-05T01:33:50.135Z,15.00
2018-09-05T01:36:19.057Z,14.93
2018-09-05T01:38:47.870Z,14.94
2018-09-05T01:41:17.036Z,14.80
2018-09-05T01:43:45.875Z,14.81
2018-09-05T01:46:14.644Z,14.76
2018-09-05T01:48:43.590Z,14.67
2018-09-05T01:51:12.625Z,14.68
2018-09-05T01:53:41.411Z,14.67
2018-09-05T01:56:10.362Z,14.70
2018-09-05T01:58:39.697Z,14.72
2018-09-05T02:01:08.496Z,14.73
2018-09-05T02:03:37.631Z,14.77
2018-09-05T02:06:06.457Z,14.80
2018-09-05T02:08:35.334Z,14.70
2018-09-05T02:11:04.439Z,14.70
2018-09-05T02:13:33.342Z,14.64
2018-09-05T02:16:02.128Z,14.67
2018-09-05T02:18:31.069Z,14.74
2018-09-05T02:20:59.900Z,14.69
2018-09-05T02:23:28.783Z,14.78
2018-09-05T02:25:57.895Z,14.57
2018-09-05T02:28:26.684Z,14.48
2018-09-05T02:30:55.452Z,14.55
2018-09-05T02:33:24.678Z,14.51
2018-09-05T02:35:53.483Z,14.46
2018-09-05T02:38:22.299Z,14.56
2018-09-05T02:40:51.390Z,14.53
2018-09-05T02:43:25.670Z,14.55
2018-09-05T02:45:54.838Z,14.49
2018-09-05T02:48:23.715Z,14.53
2018-09-05T02:50:55.311Z,14.42
2018-09-05T02:53:24.244Z,14.45
2018-09-05T02:55:58.540Z,14.47
2018-09-05T02:58:27.676Z,14.28
2018-09-05T03:00:56.443Z,14.33
2018-09-05T03:03:25.531Z,14.30
2018-09-05T03:05:54.914Z,14.39
2018-09-05T03:08:23.796Z,14.22
2018-09-05T03:10:52.682Z,14.30
2018-09-05T03:13:21.987Z,14.25
2018-09-05T03:15:50.806Z,14.24
2018-09-05T03:18:19.597Z,14.37
2018-09-05T03:20:48.701Z,14.28
2018-09-05T03:23:17.516Z,14.30
2018-09-05T03:25:46.331Z,14.16
2018-09-05T03:28:15.448Z,13.93
2018-09-05T03:30:44.293Z,13.97
2018-09-05T03:33:13.160Z,13.99
2018-09-05T03:35:42.296Z,14.04
2018-09-05T03:38:11.097Z,13.93
2018-09-05T03:40:39.894Z,13.87
2018-09-05T03:43:09.117Z,13.94
2018-09-05T03:45:37.872Z,13.99
2018-09-05T03:48:07.165Z,13.80
2018-09-05T03:50:36.407Z,13.71
2018-09-05T03:53:05.202Z,13.78
2018-09-05T03:55:33.972Z,13.78
2018-09-05T03:58:03.084Z,13.86
2018-09-05T04:00:33.772Z,13.70
2018-09-05T04:03:03.788Z,13.97
2018-09-05T04:05:32.733Z,13.95
2018-09-05T04:08:01.939Z,13.98
2018-09-05T04:10:30.920Z,13.83
2018-09-05T04:12:59.748Z,13.57
2018-09-05T04:15:28.586Z,13.53
2018-09-05T04:17:57.652Z,13.46
2018-09-05T04:20:26.446Z,13.52
2018-09-05T04:22:55.237Z,13.55
2018-09-05T04:25:24.272Z,13.48
2018-09-05T04:27:59.155Z,13.38
2018-09-05T04:30:28.101Z,13.41
2018-09-05T04:32:56.972Z,13.49
2018-09-05T04:35:25.836Z,13.61
2018-09-05T04:37:54.683Z,13.59
2018-09-05T04:40:23.518Z,13.58
2018-09-05T04:42:52.272Z,13.57
2018-09-05T04:45:21.093Z,13.57
2018-09-05T04:47:50.336Z,13.45
2018-09-05T04:50:19.260Z,13.44
2018-09-05T04:52:48.065Z,13.56
2018-09-05T04:55:16.867Z,13.56
2018-09-05T04:57:45.681Z,13.52
2018-09-05T05:00:14.585Z,13.61
2018-09-05T05:02:43.536Z,13.52
2018-09-05T05:05:12.667Z,13.54
2018-09-05T05:07:41.450Z,13.72
2018-09-05T05:10:10.232Z,13.57
2018-09-05T05:12:39.166Z,13.57
2018-09-05T05:15:07.928Z,13.68
2018-09-05T05:17:36.751Z,13.68
2018-09-05T05:20:05.689Z,13.64
2018-09-05T05:22:34.449Z,13.77
2018-09-05T05:25:03.322Z,13.74
2018-09-05T05:27:32.472Z,13.74
2018-09-05T05:30:01.265Z,13.87
2018-09-05T05:32:30.241Z,13.96
2018-09-05T05:34:59.026Z,13.99
2018-09-05T05:37:28.067Z,14.03
2018-09-05T05:39:56.877Z,14.12
2018-09-05T05:42:25.693Z,14.06
2018-09-05T05:44:54.471Z,14.23
2018-09-05T05:47:23.371Z,14.26
2018-09-05T05:49:52.378Z,14.26
2018-09-05T05:52:21.194Z,14.35
2018-09-05T05:54:49.936Z,14.48
2018-09-05T05:57:18.743Z,14.61
2018-09-05T05:59:47.484Z,14.74
2018-09-05T06:02:16.465Z,14.77
2018-09-05T06:04:45.270Z,14.85
2018-09-05T06:07:14.088Z,14.93
2018-09-05T06:09:42.849Z,15.03
2018-09-05T06:12:11.753Z,15.07
2018-09-05T06:14:40.576Z,15.11
2018-09-05T06:17:09.471Z,15.16
2018-09-05T06:19:38.561Z,15.15
2018-09-05T06:22:07.401Z,15.13
2018-09-05T06:24:36.328Z,15.32
2018-09-05T06:27:05.248Z,15.40
2018-09-05T06:29:34.094Z,15.81
2018-09-05T06:32:02.880Z,15.58
2018-09-05T06:34:31.700Z,15.65
2018-09-05T06:37:00.479Z,15.82
2018-09-05T06:39:29.340Z,16.13
2018-09-05T06:41:58.121Z,16.23
2018-09-05T06:44:26.952Z,16.19
2018-09-05T06:46:55.756Z,16.43
2018-09-05T06:49:24.649Z,16.50
2018-09-05T06:51:53.502Z,16.63
2018-09-05T06:54:22.319Z,16.72
2018-09-05T06:56:51.100Z,16.91
2018-09-05T06:59:19.927Z,17.24
2018-09-05T07:01:48.710Z,17.05
2018-09-05T07:04:17.756Z,17.35
2018-09-05T07:06:46.585Z,17.55
2018-09-05T07:09:15.415Z,17.28
2018-09-05T07:11:44.549Z,17.53
2018-09-05T07:14:13.361Z,17.75
2018-09-05T07:16:42.255Z,17.45
2018-09-05T07:19:12.188Z,17.73
2018-09-05T07:21:41.049Z,17.79
2018-09-05T07:24:09.820Z,17.99
2018-09-05T07:26:38.692Z,18.02
2018-09-05T07:29:07.552Z,18.23
2018-09-05T07:31:36.448Z,18.19
2018-09-05T07:34:05.291Z,18.50
2018-09-05T07:36:34.393Z,18.54
2018-09-05T07:39:04.232Z,18.57
2018-09-05T07:41:33.402Z,18.93
2018-09-05T07:44:02.185Z,18.55
2018-09-05T07:46:31.095Z,19.05
2018-09-05T07:48:59.978Z,19.52
2018-09-05T07:51:28.807Z,19.39
2018-09-05T07:53:57.643Z,19.29
2018-09-05T07:56:26.480Z,19.65
2018-09-05T07:58:55.589Z,19.53
2018-09-05T08:01:24.386Z,19.59
2018-09-05T08:03:53.311Z,19.61
2018-09-05T08:06:22.233Z,19.82
2018-09-05T08:08:51.024Z,19.64
2018-09-05T08:11:19.836Z,19.72
2018-09-05T08:13:48.595Z,19.91
2018-09-05T08:16:17.461Z,19.51
2018-09-05T08:18:46.327Z,19.63
2018-09-05T08:21:16.024Z,19.94
2018-09-05T08:23:45.027Z,19.41
2018-09-05T08:26:13.828Z,19.38
2018-09-05T08:28:42.654Z,19.81
2018-09-05T08:31:11.471Z,19.71
2018-09-05T08:33:40.657Z,19.61
2018-09-05T08:36:09.619Z,19.85
2018-09-05T08:38:38.349Z,19.54
2018-09-05T08:41:10.051Z,19.79
2018-09-05T08:44:10.430Z,19.95
2018-09-05T08:46:39.083Z,19.70
2018-09-05T08:49:07.948Z,19.48
2018-09-05T08:51:36.812Z,19.92
2018-09-05T08:54:05.780Z,19.70
2018-09-05T08:56:34.612Z,19.38
2018-09-05T08:59:03.505Z,19.82
2018-09-05T09:01:32.296Z,19.52
2018-09-05T09:04:01.095Z,19.29
2018-09-05T09:06:29.942Z,19.35
2018-09-05T09:08:58.761Z,19.59
2018-09-05T09:11:27.556Z,19.55
2018-09-05T09:13:56.381Z,20.18
2018-09-05T09:16:25.175Z,20.61
2018-09-05T09:18:54.173Z,20.41
2018-09-05T09:21:22.929Z,20.63
2018-09-05T09:23:51.740Z,21.05
2018-09-05T09:26:20.522Z,21.02
2018-09-05T09:28:49.373Z,20.76
2018-09-05T09:31:18.235Z,20.37
2018-09-05T09:33:47.084Z,20.35
2018-09-05T09:36:15.896Z,20.16
2018-09-05T09:38:44.692Z,20.31
2018-09-05T09:41:13.498Z,20.06
2018-09-05T09:43:42.329Z,19.90
2018-09-05T09:46:11.150Z,20.16
2018-09-05T09:48:40.099Z,20.04
2018-09-05T09:51:08.937Z,20.54
2018-09-05T09:53:37.780Z,20.21
2018-09-05T09:56:06.784Z,20.52
2018-09-05T09:58:35.931Z,20.46
2018-09-05T10:01:10.439Z,20.66
2018-09-05T10:03:45.019Z,21.23
2018-09-05T10:06:21.599Z,21.24
2018-09-05T10:08:55.822Z,21.24
2018-09-05T10:11:30.259Z,20.69
2018-09-05T10:14:04.648Z,20.74
2018-09-05T10:16:40.195Z,20.91
2018-09-05T10:19:10.703Z,20.66
2018-09-05T10:21:39.833Z,20.64
2018-09-05T10:24:08.692Z,20.65
2018-09-05T10:26:37.586Z,20.73
2018-09-05T10:29:06.353Z,20.77
2018-09-05T10:31:35.204Z,20.54
2018-09-05T10:34:04.136Z,20.79
2018-09-05T10:36:32.921Z,20.86
2018-09-05T10:39:01.920Z,20.38
2018-09-05T10:41:31.009Z,20.77
2018-09-05T10:43:59.854Z,21.15
2018-09-05T10:46:28.588Z,20.86
2018-09-05T10:48:57.457Z,20.89
2018-09-05T10:51:32.071Z,21.38
2018-09-05T10:54:00.873Z,21.05
2018-09-05T10:56:29.891Z,21.50
2018-09-05T10:58:58.706Z,21.39
2018-09-05T11:01:27.659Z,20.86
2018-09-05T11:03:56.723Z,21.06
2018-09-05T11:06:25.506Z,21.06
2018-09-05T11:08:54.651Z,21.45
2018-09-05T11:11:23.449Z,21.76
2018-09-05T11:13:52.338Z,21.94
2018-09-05T11:16:21.113Z,21.68
2018-09-05T11:18:49.880Z,21.64
2018-09-05T11:21:18.780Z,22.18
2018-09-05T11:23:47.998Z,21.66
2018-09-05T11:26:17.040Z,21.88
2018-09-05T11:28:45.825Z,21.85
2018-09-05T11:31:15.110Z,21.99
2018-09-05T11:33:43.898Z,22.12
2018-09-05T11:36:12.711Z,22.02
2018-09-05T11:38:41.593Z,21.80
2018-09-05T11:41:10.411Z,21.99
2018-09-05T11:43:39.272Z,21.89
2018-09-05T11:46:08.103Z,22.08
2018-09-05T11:48:36.944Z,21.97
2018-09-05T11:51:05.671Z,21.91
2018-09-05T11:53:34.439Z,21.95
2018-09-05T11:56:03.652Z,22.07
2018-09-05T11:58:32.463Z,21.87
2018-09-05T12:01:01.244Z,21.91
2018-09-05T12:03:30.117Z,21.77
2018-09-05T12:05:58.899Z,22.20
2018-09-05T12:08:28.021Z,22.20
2018-09-05T12:10:56.815Z,22.51
2018-09-05T12:13:25.705Z,22.04
2018-09-05T12:15:54.592Z,22.19
2018-09-05T12:18:23.415Z,22.41
2018-09-05T12:20:52.174Z,21.93
2018-09-05T12:23:21.020Z,22.32
2018-09-05T12:25:49.862Z,22.44
2018-09-05T12:28:18.882Z,22.48
2018-09-05T12:30:47.671Z,22.04
2018-09-05T12:33:16.478Z,22.43
2018-09-05T12:35:45.245Z,22.51
2018-09-05T12:38:14.335Z,22.46
2018-09-05T12:40:43.167Z,22.42
2018-09-05T12:43:11.953Z,22.96
2018-09-05T12:45:41.044Z,23.20
2018-09-05T12:48:09.933Z,23.43
2018-09-05T12:50:38.784Z,23.09
2018-09-05T12:53:07.964Z,22.73
2018-09-05T12:55:36.839Z,22.49
2018-09-05T12:58:05.671Z,22.48
2018-09-05T13:00:34.801Z,22.66
2018-09-05T13:03:03.592Z,22.52
2018-09-05T13:05:32.533Z,22.39
2018-09-05T13:08:01.285Z,22.61
2018-09-05T13:10:30.143Z,22.78
2018-09-05T13:12:59.004Z,22.19
2018-09-05T13:15:27.857Z,22.30
2018-09-05T13:17:56.675Z,22.10
2018-09-05T13:20:25.812Z,22.24
2018-09-05T13:22:54.693Z,22.50
2018-09-05T13:25:23.551Z,22.36
2018-09-05T13:27:52.320Z,22.32
2018-09-05T13:30:21.332Z,22.64
2018-09-05T13:32:50.104Z,22.67
2018-09-05T13:35:19.023Z,22.93
2018-09-05T13:37:47.807Z,23.25
2018-09-05T13:40:16.704Z,22.94
2018-09-05T13:42:45.547Z,22.83
2018-09-05T13:45:20.413Z,23.18
2018-09-05T13:47:49.193Z,23.14
2018-09-05T13:50:18.107Z,22.90
2018-09-05T13:52:46.932Z,23.02
2018-09-05T13:55:15.694Z,23.28
2018-09-05T13:57:44.490Z,23.40
2018-09-05T14:00:14.332Z,23.04
2018-09-05T14:02:44.204Z,23.27
2018-09-05T14:05:13.574Z,23.24
2018-09-05T14:07:42.765Z,22.69
2018-09-05T14:10:12.015Z,22.78
2018-09-05T14:12:40.831Z,23.00
2018-09-05T14:15:09.690Z,23.24
2018-09-05T14:17:38.572Z,23.15
2018-09-05T14:20:07.474Z,23.11
2018-09-05T14:22:38.610Z,23.13
2018-09-05T14:25:08.140Z,23.54
2018-09-05T14:27:38.641Z,23.39
2018-09-05T14:30:07.943Z,23.69
2018-09-05T14:32:36.817Z,23.44
2018-09-05T14:35:05.713Z,23.15
2018-09-05T14:37:34.615Z,23.36
2018-09-05T14:40:03.571Z,23.63
2018-09-05T14:42:32.408Z,23.42
2018-09-05T14:45:01.525Z,23.22
2018-09-05T14:47:30.328Z,23.50
2018-09-05T14:50:00.671Z,23.66
2018-09-05T14:52:29.790Z,23.45
2018-09-05T14:54:58.592Z,23.59
2018-09-05T14:57:27.390Z,23.51
2018-09-05T14:59:56.561Z,23.35
2018-09-05T15:02:25.293Z,23.28
2018-09-05T15:04:54.049Z,23.35
2018-09-05T15:07:23.251Z,23.56
2018-09-05T15:09:52.005Z,23.58
2018-09-05T15:12:20.821Z,23.48
2018-09-05T15:14:49.902Z,23.79
2018-09-05T15:17:18.683Z,23.69
2018-09-05T15:19:47.490Z,23.61
2018-09-05T15:22:16.359Z,23.85
2018-09-05T15:24:45.191Z,23.92
2018-09-05T15:27:14.216Z,23.61
2018-09-05T15:29:42.975Z,23.71
2018-09-05T15:32:11.992Z,23.73
2018-09-05T15:34:40.753Z,23.42
2018-09-05T15:37:09.601Z,23.50
2018-09-05T15:39:38.388Z,23.25
2018-09-05T15:42:07.328Z,23.79
2018-09-05T15:44:36.134Z,23.57
2018-09-05T15:47:05.122Z,23.56
2018-09-05T15:49:33.916Z,23.44
2018-09-05T15:52:03.035Z,23.29
2018-09-05T15:54:31.826Z,23.34
2018-09-05T15:57:00.676Z,23.41
2018-09-05T15:59:29.457Z,23.15
2018-09-05T16:01:58.272Z,23.34
2018-09-05T16:04:27.072Z,23.47
2018-09-05T16:06:55.927Z,23.41
2018-09-05T16:09:24.899Z,23.20
2018-09-05T16:11:53.775Z,23.42
2018-09-05T16:14:22.627Z,23.40
2018-09-05T16:16:51.482Z,23.33
2018-09-05T16:19:20.267Z,23.33
2018-09-05T16:21:49.247Z,23.11
2018-09-05T16:24:18.059Z,23.16
2018-09-05T16:26:47.024Z,23.32
2018-09-05T16:29:15.811Z,23.39
2018-09-05T16:31:44.632Z,23.53
2018-09-05T16:34:13.543Z,23.26
2018-09-05T16:36:42.367Z,23.39
2018-09-05T16:39:13.543Z,23.38
2018-09-05T16:41:42.306Z,23.22
2018-09-05T16:44:11.180Z,23.16
2018-09-05T16:46:40.254Z,23.19
2018-09-05T16:49:09.147Z,23.24
2018-09-05T16:51:38.031Z,23.26
2018-09-05T16:54:06.927Z,23.04
2018-09-05T16:56:35.833Z,23.07
2018-09-05T16:59:04.858Z,23.12
2018-09-05T17:01:33.697Z,22.99
2018-09-05T17:04:02.683Z,22.99
2018-09-05T17:06:31.479Z,22.91
2018-09-05T17:09:00.377Z,22.81
2018-09-05T17:11:29.238Z,22.74
2018-09-05T17:13:58.089Z,22.68
2018-09-05T17:16:26.943Z,22.76
2018-09-05T17:18:55.779Z,22.60
2018-09-05T17:21:24.567Z,22.62
2018-09-05T17:23:53.462Z,22.51
2018-09-05T17:26:22.303Z,22.50
2018-09-05T17:28:51.075Z,22.39
2018-09-05T17:31:19.939Z,22.34
2018-09-05T17:33:48.748Z,22.32
2018-09-05T17:36:17.715Z,22.26
2018-09-05T17:38:46.883Z,22.21
2018-09-05T17:41:15.740Z,22.12
2018-09-05T17:43:44.595Z,22.09
2018-09-05T17:46:13.430Z,21.98
2018-09-05T17:48:42.316Z,21.95
2018-09-05T17:51:11.519Z,21.80
2018-09-05T17:53:40.342Z,21.69
2018-09-05T17:56:09.169Z,21.63
2018-09-05T17:58:37.936Z,21.62
2018-09-05T18:01:09.803Z,21.40
2018-09-05T18:03:38.672Z,21.34
2018-09-05T18:06:07.659Z,21.32
2018-09-05T18:08:36.422Z,21.14
2018-09-05T18:11:05.357Z,21.05
2018-09-05T18:13:34.378Z,20.97
2018-09-05T18:16:03.220Z,20.87
2018-09-05T18:18:32.097Z,20.76
2018-09-05T18:21:01.003Z,20.75
2018-09-05T18:23:29.772Z,20.66
2018-09-05T18:25:58.602Z,20.60
2018-09-05T18:28:27.385Z,20.55
2018-09-05T18:30:56.245Z,20.60
2018-09-05T18:33:25.135Z,20.53
2018-09-05T18:35:53.899Z,20.48
2018-09-05T18:38:22.918Z,20.45
2018-09-05T18:40:51.626Z,20.39
2018-09-05T18:43:20.859Z,20.29
2018-09-05T18:45:49.816Z,20.26
2018-09-05T18:48:19.239Z,20.27
2018-09-05T18:50:48.241Z,20.15
2018-09-05T18:53:17.001Z,20.10
2018-09-05T18:55:46.085Z,20.00
2018-09-05T18:58:15.468Z,19.98
2018-09-05T19:00:44.311Z,19.89
2018-09-05T19:03:13.095Z,19.84
2018-09-05T19:05:42.646Z,19.85
2018-09-05T19:08:11.457Z,19.81
2018-09-05T19:10:40.210Z,19.78
2018-09-05T19:13:09.291Z,19.87
2018-09-05T19:15:38.631Z,19.71
2018-09-05T19:18:07.408Z,19.62
2018-09-05T19:20:36.516Z,19.68
2018-09-05T19:23:05.584Z,19.60
2018-09-05T19:25:34.374Z,19.60
2018-09-05T19:28:03.607Z,19.48
2018-09-05T19:30:32.403Z,19.40
2018-09-05T19:33:01.143Z,19.54
2018-09-05T19:35:30.234Z,19.54
2018-09-05T19:37:59.072Z,19.35
2018-09-05T19:40:27.991Z,19.27
2018-09-05T19:42:57.038Z,19.21
2018-09-05T19:45:31.741Z,19.13
2018-09-05T19:48:00.659Z,19.15
2018-09-05T19:50:29.474Z,19.07
2018-09-05T19:52:58.273Z,19.04
2018-09-05T19:55:27.237Z,19.02
2018-09-05T19:57:55.984Z,18.95
2018-09-05T20:00:24.828Z,19.03
2018-09-05T20:02:53.918Z,18.97
2018-09-05T20:05:22.681Z,18.91
2018-09-05T20:07:51.706Z,18.97
2018-09-05T20:10:20.614Z,18.97
2018-09-05T20:12:49.412Z,18.94
2018-09-05T20:15:18.280Z,18.88
2018-09-05T20:17:47.387Z,18.86
2018-09-05T20:20:16.152Z,18.84
2018-09-05T20:22:44.930Z,18.78
2018-09-05T20:25:14.056Z,18.72
2018-09-05T20:27:42.872Z,18.66
2018-09-05T20:30:11.643Z,18.61
2018-09-05T20:32:40.565Z,18.56
2018-09-05T20:35:09.339Z,18.50
2018-09-05T20:37:43.237Z,18.42
2018-09-05T20:40:12.031Z,18.38
2018-09-05T20:42:40.911Z,18.35
2018-09-05T20:45:09.827Z,18.29
2018-09-05T20:47:38.856Z,18.28
2018-09-05T20:50:07.629Z,18.27
2018-09-05T20:52:36.893Z,18.25
2018-09-05T20:55:05.773Z,18.22
2018-09-05T20:57:34.843Z,18.14
2018-09-05T21:00:04.283Z,18.12
2018-09-05T21:02:33.032Z,18.10
2018-09-05T21:05:01.885Z,18.11
2018-09-05T21:07:30.864Z,18.14
2018-09-05T21:09:59.630Z,18.04
2018-09-05T21:12:28.408Z,18.02
2018-09-05T21:14:57.534Z,17.96
2018-09-05T21:17:26.362Z,17.91
2018-09-05T21:19:55.136Z,17.93
2018-09-05T21:22:24.164Z,17.83
2018-09-05T21:24:52.916Z,17.86
2018-09-05T21:27:21.769Z,17.79
2018-09-05T21:29:50.743Z,17.80
2018-09-05T21:32:19.494Z,17.76
2018-09-05T21:34:48.238Z,17.76
2018-09-05T21:37:17.360Z,17.74
2018-09-05T21:39:46.163Z,17.69
2018-09-05T21:42:14.963Z,17.68
2018-09-05T21:44:44.014Z,17.66
2018-09-05T21:47:12.775Z,17.65
2018-09-05T21:49:41.535Z,17.63
2018-09-05T21:52:10.939Z,17.61
2018-09-05T21:54:39.788Z,17.60
2018-09-05T21:57:08.924Z,17.52
2018-09-05T21:59:38.104Z,17.53
2018-09-05T22:02:06.964Z,17.58
2018-09-05T22:04:35.830Z,17.55
2018-09-05T22:07:05.044Z,17.56
2018-09-05T22:09:33.863Z,17.49
2018-09-05T22:12:02.668Z,17.46
2018-09-05T22:14:33.431Z,17.42
2018-09-05T22:17:02.274Z,17.42
2018-09-05T22:19:31.072Z,17.41
2018-09-05T22:22:00.060Z,17.39
2018-09-05T22:24:28.848Z,17.40
2018-09-05T22:26:57.632Z,17.39
2018-09-05T22:29:26.632Z,17.36
2018-09-05T22:31:55.617Z,17.33
2018-09-05T22:34:24.716Z,17.33
2018-09-05T22:36:54.127Z,17.30
2018-09-05T22:39:22.907Z,17.30
2018-09-05T22:41:51.693Z,17.27
2018-09-05T22:44:37.719Z,17.25
2018-09-05T22:47:23.400Z,17.21
2018-09-05T22:51:22.312Z,17.22
2018-09-05T22:55:15.542Z,17.21
2018-09-05T22:59:08.877Z,17.17
2018-09-05T23:01:56.937Z,17.11
2018-09-05T23:08:52.548Z,17.11
2018-09-05T23:11:50.388Z,17.04
2018-09-05T23:14:33.836Z,17.02
2018-09-05T23:17:20.272Z,17.05
2018-09-05T23:22:06.056Z,17.01
2018-09-05T23:24:34.885Z,16.94
2018-09-05T23:27:03.724Z,16.91
2018-09-05T23:29:33.044Z,16.85
2018-09-05T23:32:01.825Z,16.95
2018-09-05T23:34:30.993Z,16.87
2018-09-05T23:37:00.473Z,16.88
2018-09-05T23:39:29.258Z,16.82
2018-09-05T23:41:58.434Z,16.84
2018-09-05T23:44:27.544Z,16.85
2018-09-05T23:46:56.444Z,16.78
2018-09-05T23:49:25.283Z,16.78
2018-09-05T23:51:54.214Z,16.76
2018-09-05T23:54:23.005Z,16.78
2018-09-05T23:56:51.913Z,16.77
2018-09-05T23:59:21.035Z,16.78
